createdAt,value
2023-02-17T00:01:32.851Z,84.28
2023-02-17T00:04:00.898Z,84.70
2023-02-17T00:06:30.345Z,83.67
2023-02-17T00:09:02.092Z,83.54
2023-02-17T00:11:30.300Z,84.14
2023-02-17T00:13:58.759Z,84.26
2023-02-17T00:16:27.242Z,83.92
2023-02-17T00:18:59.711Z,83.05
2023-02-17T00:21:29.017Z,81.73
2023-02-17T00:23:57.548Z,81.13
2023-02-17T00:26:26.194Z,82.93
2023-02-17T00:28:53.924Z,83.24
2023-02-17T00:31:25.143Z,83.36
2023-02-17T00:33:55.213Z,84.02
2023-02-17T00:36:23.156Z,84.58
2023-02-17T00:38:51.799Z,84.08
2023-02-17T00:41:19.581Z,84.70
2023-02-17T00:43:47.624Z,85.84
2023-02-17T00:46:16.784Z,86.45
2023-02-17T00:48:48.010Z,86.87
2023-02-17T00:51:16.795Z,85.17
2023-02-17T00:53:46.229Z,85.88
2023-02-17T00:56:14.186Z,85.78
2023-02-17T00:58:42.459Z,85.16
2023-02-17T01:01:11.078Z,84.45
2023-02-17T01:03:42.472Z,84.71
2023-02-17T01:06:23.780Z,83.18
2023-02-17T01:08:51.735Z,84.27
2023-02-17T01:11:26.100Z,83.94
2023-02-17T01:13:54.359Z,84.25
2023-02-17T01:16:30.654Z,84.22
2023-02-17T01:19:00.238Z,84.13
2023-02-17T01:21:28.832Z,84.04
2023-02-17T01:23:57.976Z,84.09
2023-02-17T01:26:26.819Z,81.98
2023-02-17T01:28:55.152Z,83.98
2023-02-17T01:31:23.339Z,85.01
2023-02-17T01:34:00.187Z,85.02
2023-02-17T01:36:28.240Z,84.21
2023-02-17T01:39:00.724Z,85.44
2023-02-17T01:41:28.838Z,84.68
2023-02-17T01:44:06.765Z,84.99
2023-02-17T01:46:46.375Z,84.01
2023-02-17T01:49:14.169Z,85.61
2023-02-17T01:51:42.265Z,85.34
2023-02-17T01:54:13.475Z,86.91
2023-02-17T01:56:43.412Z,86.65
2023-02-17T01:59:13.194Z,86.50
2023-02-17T02:01:41.402Z,85.58
2023-02-17T02:04:09.603Z,85.20
2023-02-17T02:06:39.176Z,86.51
2023-02-17T02:09:18.079Z,87.08
2023-02-17T02:11:50.172Z,86.85
2023-02-17T02:14:18.686Z,85.52
2023-02-17T02:17:25.856Z,84.81
2023-02-17T02:20:21.473Z,85.53
2023-02-17T02:23:01.285Z,84.52
2023-02-17T02:26:07.754Z,84.69
2023-02-17T02:28:57.476Z,84.01
2023-02-17T02:31:31.040Z,83.55
2023-02-17T02:34:20.447Z,84.59
2023-02-17T02:37:02.465Z,84.88
2023-02-17T02:39:35.534Z,85.86
2023-02-17T02:42:06.235Z,86.61
2023-02-17T02:44:34.604Z,85.51
2023-02-17T02:47:06.846Z,85.73
2023-02-17T02:49:35.804Z,85.91
2023-02-17T02:52:10.689Z,85.75
2023-02-17T02:54:59.091Z,85.72
2023-02-17T02:57:36.455Z,86.74
2023-02-17T03:00:12.540Z,86.38
2023-02-17T03:02:48.570Z,85.81
2023-02-17T03:05:33.534Z,85.48
2023-02-17T03:08:22.450Z,86.09
2023-02-17T03:10:52.317Z,86.26
2023-02-17T03:13:21.262Z,86.81
2023-02-17T03:15:49.411Z,86.13
2023-02-17T03:18:17.616Z,86.17
2023-02-17T03:20:51.351Z,87.18
2023-02-17T03:23:21.283Z,85.97
2023-02-17T03:25:49.949Z,84.82
2023-02-17T03:28:19.068Z,84.79
2023-02-17T03:30:48.031Z,84.96
2023-02-17T03:33:17.177Z,85.60
2023-02-17T03:35:45.048Z,85.44
2023-02-17T03:38:12.856Z,85.28
2023-02-17T03:40:40.813Z,84.85
2023-02-17T03:43:08.732Z,85.12
2023-02-17T03:45:37.752Z,85.50
2023-02-17T03:48:06.015Z,85.52
2023-02-17T03:50:33.821Z,85.67
2023-02-17T03:53:01.967Z,85.47
2023-02-17T03:55:30.050Z,85.77
2023-02-17T03:57:57.859Z,85.78
2023-02-17T04:00:25.695Z,85.46
2023-02-17T04:02:53.959Z,86.07
2023-02-17T04:05:21.852Z,85.84
2023-02-17T04:07:50.355Z,84.44
2023-02-17T04:10:18.791Z,83.92
2023-02-17T04:12:46.465Z,84.34
2023-02-17T04:15:14.294Z,83.79
2023-02-17T04:17:44.272Z,83.99
2023-02-17T04:20:12.499Z,83.43
2023-02-17T04:22:40.446Z,83.48
2023-02-17T04:25:08.534Z,84.03
2023-02-17T04:27:36.430Z,83.97
2023-02-17T04:30:05.572Z,83.55
2023-02-17T04:32:33.400Z,83.64
2023-02-17T04:35:01.229Z,84.04
2023-02-17T04:37:29.334Z,84.20
2023-02-17T04:39:57.413Z,84.02
2023-02-17T04:42:25.278Z,85.08
2023-02-17T04:44:53.429Z,84.52
2023-02-17T04:47:21.330Z,85.52
2023-02-17T04:49:49.133Z,85.16
2023-02-17T04:52:17.042Z,85.33
2023-02-17T04:54:44.808Z,84.63
2023-02-17T04:57:12.738Z,85.12
2023-02-17T04:59:41.390Z,85.14
2023-02-17T05:02:09.230Z,84.24
2023-02-17T05:04:38.620Z,84.09
2023-02-17T05:07:08.826Z,84.19
2023-02-17T05:09:38.864Z,84.65
2023-02-17T05:12:07.972Z,84.17
2023-02-17T05:14:35.768Z,83.88
2023-02-17T05:17:03.937Z,83.20
2023-02-17T05:19:33.042Z,82.90
2023-02-17T05:22:01.047Z,82.61
2023-02-17T05:24:29.611Z,83.59
2023-02-17T05:26:59.131Z,82.44
2023-02-17T05:29:45.062Z,82.08
2023-02-17T05:32:13.190Z,82.20
2023-02-17T05:34:43.706Z,81.35
2023-02-17T05:37:11.712Z,80.14
2023-02-17T05:39:39.792Z,80.16
2023-02-17T05:42:10.793Z,80.34
2023-02-17T05:44:39.364Z,80.37
2023-02-17T05:47:09.264Z,80.34
2023-02-17T05:49:38.184Z,79.17
2023-02-17T05:52:06.209Z,79.06
2023-02-17T05:54:35.540Z,79.16
2023-02-17T05:57:04.052Z,79.25
2023-02-17T05:59:33.939Z,78.50
2023-02-17T06:02:01.944Z,78.42
2023-02-17T06:04:30.775Z,78.56
2023-02-17T06:06:59.049Z,79.79
2023-02-17T06:09:26.898Z,79.20
2023-02-17T06:11:56.268Z,78.95
2023-02-17T06:14:24.082Z,78.60
2023-02-17T06:16:51.851Z,77.53
2023-02-17T06:19:19.899Z,76.70
2023-02-17T06:21:48.482Z,75.92
2023-02-17T06:24:17.276Z,75.26
2023-02-17T06:26:45.465Z,74.60
2023-02-17T06:29:13.305Z,73.91
2023-02-17T06:31:43.477Z,73.66
2023-02-17T06:34:12.107Z,73.29
2023-02-17T06:36:40.461Z,72.79
2023-02-17T06:39:08.319Z,74.36
2023-02-17T06:41:36.547Z,73.44
2023-02-17T06:44:09.629Z,72.35
2023-02-17T06:46:38.238Z,72.04
2023-02-17T06:49:06.047Z,71.88
2023-02-17T06:51:34.462Z,71.73
2023-02-17T06:54:02.359Z,71.18
2023-02-17T06:56:30.285Z,71.46
2023-02-17T06:58:58.117Z,71.06
2023-02-17T07:01:26.466Z,71.13
2023-02-17T07:03:55.084Z,70.51
2023-02-17T07:06:24.361Z,70.50
2023-02-17T07:08:52.919Z,70.16
2023-02-17T07:11:20.990Z,70.11
2023-02-17T07:13:48.728Z,68.78
2023-02-17T07:16:17.773Z,70.38
2023-02-17T07:18:45.776Z,70.29
2023-02-17T07:21:14.084Z,70.06
2023-02-17T07:23:42.266Z,69.29
2023-02-17T07:26:11.484Z,70.27
2023-02-17T07:28:39.965Z,69.16
2023-02-17T07:31:12.396Z,68.48
2023-02-17T07:33:42.389Z,70.54
2023-02-17T07:36:13.488Z,70.42
2023-02-17T07:38:42.166Z,69.96
2023-02-17T07:41:17.173Z,68.66
2023-02-17T07:43:45.290Z,68.97
2023-02-17T07:46:13.366Z,68.20
2023-02-17T07:48:41.608Z,68.14
2023-02-17T07:51:11.693Z,66.56
2023-02-17T07:53:39.670Z,66.47
2023-02-17T07:56:11.731Z,66.62
2023-02-17T07:58:40.492Z,65.27
2023-02-17T08:01:19.661Z,65.09
2023-02-17T08:03:50.153Z,64.42
2023-02-17T08:06:19.665Z,65.29
2023-02-17T08:09:07.143Z,65.30
2023-02-17T08:11:54.357Z,65.54
2023-02-17T08:14:27.404Z,65.59
2023-02-17T08:17:02.232Z,64.43
2023-02-17T08:19:46.504Z,64.66
2023-02-17T08:22:19.181Z,65.48
2023-02-17T08:24:47.329Z,65.35
2023-02-17T08:27:15.641Z,65.43
2023-02-17T08:29:45.051Z,66.25
2023-02-17T08:32:13.978Z,65.30
2023-02-17T08:34:43.192Z,65.79
2023-02-17T08:37:20.087Z,65.83
2023-02-17T08:39:52.996Z,66.66
2023-02-17T08:42:21.227Z,66.47
2023-02-17T08:44:49.747Z,66.83
2023-02-17T08:47:21.249Z,66.12
2023-02-17T08:49:50.784Z,66.02
2023-02-17T08:52:18.505Z,66.71
2023-02-17T08:54:46.673Z,66.20
2023-02-17T08:57:15.091Z,66.51
2023-02-17T08:59:42.841Z,66.46
2023-02-17T09:02:11.449Z,66.37
2023-02-17T09:04:55.849Z,66.46
2023-02-17T09:07:26.485Z,66.79
2023-02-17T09:09:58.956Z,68.36
2023-02-17T09:12:30.921Z,67.21
2023-02-17T09:15:00.500Z,66.69
2023-02-17T09:17:28.446Z,67.89
2023-02-17T09:19:58.498Z,68.01
2023-02-17T09:22:31.916Z,68.17
2023-02-17T09:25:02.038Z,68.38
2023-02-17T09:27:30.088Z,68.49
2023-02-17T09:29:58.361Z,68.64
2023-02-17T09:32:29.444Z,68.07
2023-02-17T09:35:03.192Z,68.53
2023-02-17T09:37:31.187Z,68.05
2023-02-17T09:39:59.221Z,67.55
2023-02-17T09:42:28.429Z,67.43
2023-02-17T09:45:11.954Z,67.99
2023-02-17T09:47:46.792Z,68.51
2023-02-17T09:50:22.807Z,68.02
2023-02-17T09:53:11.631Z,68.61
2023-02-17T09:55:43.985Z,68.51
2023-02-17T09:58:14.718Z,68.83
2023-02-17T10:00:49.205Z,69.30
2023-02-17T10:03:19.933Z,69.32
2023-02-17T10:10:11.200Z,69.35
2023-02-17T10:13:07.999Z,69.39
2023-02-17T10:15:43.735Z,69.64
2023-02-17T10:18:29.231Z,69.21
2023-02-17T10:21:27.471Z,70.53
2023-02-17T10:23:57.959Z,69.67
2023-02-17T10:26:58.442Z,70.44
2023-02-17T10:29:37.863Z,70.08
2023-02-17T10:32:26.853Z,70.16
2023-02-17T10:35:16.462Z,70.70
2023-02-17T10:37:55.836Z,70.49
2023-02-17T10:40:42.138Z,72.05
2023-02-17T10:43:16.022Z,72.03
2023-02-17T10:45:50.596Z,71.39
2023-02-17T10:48:35.515Z,71.70
2023-02-17T10:51:44.132Z,71.57
2023-02-17T10:55:20.942Z,71.24
2023-02-17T10:58:14.092Z,71.66
2023-02-17T11:00:43.795Z,71.29
2023-02-17T11:03:21.233Z,71.15
2023-02-17T11:06:16.008Z,71.21
2023-02-17T11:08:49.420Z,72.05
2023-02-17T11:11:31.983Z,71.27
2023-02-17T11:14:14.410Z,70.71
2023-02-17T11:16:47.488Z,71.82
2023-02-17T11:19:36.381Z,71.82
2023-02-17T11:22:26.327Z,70.80
2023-02-17T11:25:01.916Z,70.83
2023-02-17T11:27:30.109Z,71.19
2023-02-17T11:30:15.408Z,70.93
2023-02-17T11:32:43.389Z,70.45
2023-02-17T11:35:53.627Z,70.61
2023-02-17T11:38:45.942Z,71.43
2023-02-17T11:41:13.864Z,72.46
2023-02-17T11:43:54.063Z,72.07
2023-02-17T11:46:25.206Z,72.07
2023-02-17T11:49:21.812Z,72.20
2023-02-17T11:52:00.419Z,72.12
2023-02-17T11:54:37.393Z,73.05
2023-02-17T11:57:21.236Z,73.38
2023-02-17T12:00:14.900Z,73.75
2023-02-17T12:03:11.500Z,74.41
2023-02-17T12:05:59.394Z,75.34
2023-02-17T12:08:50.173Z,75.76
2023-02-17T12:11:30.966Z,76.65
2023-02-17T12:14:16.938Z,76.02
2023-02-17T12:16:50.956Z,76.98
2023-02-17T12:19:37.280Z,76.88
2023-02-17T12:22:51.715Z,76.80
2023-02-17T12:25:34.441Z,78.98
2023-02-17T12:28:13.159Z,77.88
2023-02-17T12:31:05.346Z,78.11
2023-02-17T12:33:49.535Z,78.93
2023-02-17T12:36:18.391Z,78.57
2023-02-17T12:38:50.286Z,78.14
2023-02-17T12:41:21.922Z,78.57
2023-02-17T12:44:26.280Z,78.62
2023-02-17T12:46:56.438Z,79.68
2023-02-17T12:49:27.449Z,79.60
2023-02-17T12:52:07.630Z,79.91
2023-02-17T12:55:03.494Z,80.58
2023-02-17T12:57:57.501Z,80.43
2023-02-17T13:00:34.013Z,81.55
2023-02-17T13:03:04.983Z,80.58
2023-02-17T13:05:34.651Z,80.22
2023-02-17T13:08:09.147Z,81.44
2023-02-17T13:10:39.905Z,80.91
2023-02-17T13:13:14.574Z,81.59
2023-02-17T13:15:44.151Z,81.27
2023-02-17T13:18:28.104Z,81.11
2023-02-17T13:20:59.809Z,81.27
2023-02-17T13:23:37.884Z,82.25
2023-02-17T13:26:22.638Z,82.47
2023-02-17T13:28:51.194Z,82.27
2023-02-17T13:31:26.099Z,82.57
2023-02-17T13:33:58.061Z,82.37
2023-02-17T13:36:29.373Z,82.81
2023-02-17T13:39:06.449Z,83.02
2023-02-17T13:41:50.203Z,82.79
2023-02-17T13:44:31.512Z,83.54
2023-02-17T13:47:05.526Z,83.23
2023-02-17T13:49:35.346Z,84.46
2023-02-17T13:52:23.122Z,83.59
2023-02-17T13:55:07.158Z,84.02
2023-02-17T13:57:38.072Z,85.12
2023-02-17T14:00:23.987Z,84.71
2023-02-17T14:03:11.539Z,85.03
2023-02-17T14:05:50.406Z,85.64
2023-02-17T14:08:37.530Z,84.36
2023-02-17T14:11:13.505Z,86.61
2023-02-17T14:13:47.958Z,86.11
2023-02-17T14:16:32.404Z,86.93
2023-02-17T14:19:05.909Z,86.91
2023-02-17T14:21:34.264Z,89.23
2023-02-17T14:24:05.049Z,88.09
2023-02-17T14:26:42.673Z,86.95
2023-02-17T14:29:12.934Z,86.98
2023-02-17T14:31:41.669Z,87.01
2023-02-17T14:34:34.395Z,87.34
2023-02-17T14:37:11.003Z,88.29
2023-02-17T14:39:39.472Z,88.18
2023-02-17T14:42:08.165Z,88.67
2023-02-17T14:44:39.874Z,87.84
2023-02-17T14:47:10.284Z,89.43
2023-02-17T14:49:38.235Z,89.11
2023-02-17T14:52:35.336Z,87.84
2023-02-17T14:55:11.107Z,87.45
2023-02-17T14:57:47.409Z,88.89
2023-02-17T15:00:19.556Z,88.35
2023-02-17T15:02:51.514Z,87.85
2023-02-17T15:05:21.897Z,88.77
2023-02-17T15:07:49.814Z,90.28
2023-02-17T15:10:29.850Z,88.67
2023-02-17T15:13:03.323Z,88.27
2023-02-17T15:15:39.530Z,88.72
2023-02-17T15:18:08.472Z,89.39
2023-02-17T15:20:37.027Z,89.30
2023-02-17T15:23:07.249Z,89.30
2023-02-17T15:25:37.369Z,89.81
2023-02-17T15:28:10.146Z,88.72
2023-02-17T15:30:41.370Z,89.41
2023-02-17T15:33:13.016Z,89.11
2023-02-17T15:35:45.537Z,89.03
2023-02-17T15:38:14.231Z,89.03
2023-02-17T15:40:43.603Z,89.39
2023-02-17T15:43:17.375Z,89.23
2023-02-17T15:45:45.791Z,89.75
2023-02-17T15:48:24.400Z,89.47
2023-02-17T15:50:52.592Z,88.55
2023-02-17T15:53:20.636Z,88.29
2023-02-17T15:55:48.904Z,88.39
2023-02-17T15:58:18.400Z,88.60
2023-02-17T16:00:46.859Z,88.40
2023-02-17T16:03:15.362Z,88.07
2023-02-17T16:05:44.173Z,88.34
2023-02-17T16:08:12.684Z,89.12
2023-02-17T16:10:42.814Z,87.91
2023-02-17T16:13:16.579Z,87.66
2023-02-17T16:15:44.477Z,88.60
2023-02-17T16:18:21.894Z,88.30
2023-02-17T16:20:50.458Z,88.80
2023-02-17T16:23:19.844Z,88.59
2023-02-17T16:25:48.529Z,87.88
2023-02-17T16:28:18.877Z,87.52
2023-02-17T16:30:49.815Z,87.58
2023-02-17T16:33:23.209Z,88.31
2023-02-17T16:35:51.265Z,87.28
2023-02-17T16:38:27.416Z,87.14
2023-02-17T16:40:56.757Z,87.22
2023-02-17T16:43:27.801Z,87.60
2023-02-17T16:46:01.880Z,86.29
2023-02-17T16:48:35.089Z,86.49
2023-02-17T16:51:03.310Z,87.20
2023-02-17T16:53:31.707Z,87.11
2023-02-17T16:55:59.815Z,87.28
2023-02-17T16:58:27.644Z,87.21
2023-02-17T17:00:56.068Z,87.56
2023-02-17T17:03:24.031Z,87.36
2023-02-17T17:05:52.715Z,87.42
2023-02-17T17:08:22.136Z,87.19
2023-02-17T17:10:53.708Z,87.11
2023-02-17T17:13:23.957Z,88.04
2023-02-17T17:15:52.253Z,87.75
2023-02-17T17:18:21.439Z,88.88
2023-02-17T17:20:50.053Z,88.92
2023-02-17T17:23:20.405Z,87.58
2023-02-17T17:25:49.205Z,87.98
2023-02-17T17:28:19.607Z,89.47
2023-02-17T17:30:47.646Z,88.25
2023-02-17T17:33:19.360Z,87.52
2023-02-17T17:35:47.451Z,88.47
2023-02-17T17:38:18.526Z,87.52
2023-02-17T17:40:53.599Z,88.00
2023-02-17T17:43:22.029Z,86.37
2023-02-17T17:45:50.286Z,87.19
2023-02-17T17:48:19.096Z,88.22
2023-02-17T17:50:49.273Z,88.94
2023-02-17T17:53:17.279Z,88.35
2023-02-17T17:55:46.663Z,89.06
2023-02-17T17:58:16.433Z,87.63
2023-02-17T18:00:44.382Z,88.16
2023-02-17T18:03:13.087Z,88.67
2023-02-17T18:05:41.288Z,90.38
2023-02-17T18:08:09.804Z,89.58
2023-02-17T18:10:38.693Z,89.49
2023-02-17T18:13:09.405Z,90.07
2023-02-17T18:15:37.301Z,89.69
2023-02-17T18:18:05.866Z,89.44
2023-02-17T18:20:34.893Z,88.79
2023-02-17T18:23:02.820Z,88.76
2023-02-17T18:25:30.652Z,88.19
2023-02-17T18:27:58.998Z,88.33
2023-02-17T18:30:28.034Z,89.24
2023-02-17T18:33:00.480Z,90.11
2023-02-17T18:35:28.488Z,89.36
2023-02-17T18:37:56.418Z,90.09
2023-02-17T18:40:26.248Z,90.41
2023-02-17T18:42:53.952Z,89.14
2023-02-17T18:45:21.746Z,89.14
2023-02-17T18:47:49.683Z,91.00
2023-02-17T18:50:17.728Z,90.59
2023-02-17T18:52:46.076Z,90.65
2023-02-17T18:55:14.441Z,89.59
2023-02-17T18:57:43.082Z,88.99
2023-02-17T19:00:13.968Z,90.36
2023-02-17T19:02:42.277Z,89.37
2023-02-17T19:05:11.270Z,88.74
2023-02-17T19:07:39.243Z,88.79
2023-02-17T19:10:07.905Z,88.60
2023-02-17T19:12:35.950Z,88.75
2023-02-17T19:15:06.149Z,87.67
2023-02-17T19:17:34.250Z,88.91
2023-02-17T19:20:02.219Z,89.65
2023-02-17T19:22:30.785Z,88.38
2023-02-17T19:24:58.843Z,88.49
2023-02-17T19:27:26.987Z,87.93
2023-02-17T19:29:54.840Z,87.49
2023-02-17T19:32:23.143Z,87.40
2023-02-17T19:34:51.308Z,88.11
2023-02-17T19:37:20.701Z,87.35
2023-02-17T19:39:49.022Z,87.55
2023-02-17T19:42:17.020Z,86.77
2023-02-17T19:44:45.774Z,87.02
2023-02-17T19:47:13.707Z,87.00
2023-02-17T19:49:42.991Z,86.72
2023-02-17T19:52:11.191Z,86.53
2023-02-17T19:54:39.549Z,86.07
2023-02-17T19:57:07.781Z,86.85
2023-02-17T19:59:36.716Z,86.69
2023-02-17T20:02:05.490Z,85.98
2023-02-17T20:04:35.331Z,85.75
2023-02-17T20:07:03.121Z,85.46
2023-02-17T20:09:34.155Z,85.46
2023-02-17T20:12:02.622Z,85.98
2023-02-17T20:14:32.701Z,86.30
2023-02-17T20:17:02.052Z,87.05
2023-02-17T20:19:30.406Z,86.86
2023-02-17T20:22:00.904Z,87.15
2023-02-17T20:24:29.664Z,86.53
2023-02-17T20:26:57.829Z,85.95
2023-02-17T20:29:25.703Z,86.33
2023-02-17T20:31:55.878Z,85.91
2023-02-17T20:34:28.366Z,86.31
2023-02-17T20:36:56.881Z,86.15
2023-02-17T20:39:26.004Z,86.13
2023-02-17T20:41:54.693Z,86.17
2023-02-17T20:44:23.156Z,85.59
2023-02-17T20:46:51.552Z,86.00
2023-02-17T20:49:20.800Z,85.64
2023-02-17T20:51:48.974Z,85.92
2023-02-17T20:54:16.841Z,85.66
2023-02-17T20:56:46.184Z,86.27
2023-02-17T20:59:14.691Z,85.93
2023-02-17T21:01:45.967Z,85.33
2023-02-17T21:04:15.526Z,85.29
2023-02-17T21:06:45.719Z,85.41
2023-02-17T21:09:17.104Z,85.21
2023-02-17T21:11:45.535Z,85.42
2023-02-17T21:14:14.214Z,85.44
2023-02-17T21:16:50.438Z,85.36
2023-02-17T21:19:19.749Z,85.25
2023-02-17T21:21:47.843Z,85.10
2023-02-17T21:24:15.861Z,84.91
2023-02-17T21:26:43.779Z,84.19
2023-02-17T21:29:11.971Z,84.91
2023-02-17T21:31:40.265Z,85.50
2023-02-17T21:34:09.053Z,85.26
2023-02-17T21:36:36.788Z,85.23
2023-02-17T21:39:04.887Z,85.77
2023-02-17T21:41:33.245Z,85.37
2023-02-17T21:44:25.036Z,85.47
2023-02-17T21:46:54.021Z,85.07
2023-02-17T21:49:21.883Z,85.07
2023-02-17T21:51:50.090Z,85.42
2023-02-17T21:54:18.200Z,85.40
2023-02-17T21:56:46.405Z,84.90
2023-02-17T21:59:14.225Z,85.95
2023-02-17T22:01:42.651Z,86.43
2023-02-17T22:04:10.591Z,86.26
2023-02-17T22:06:40.502Z,85.60
2023-02-17T22:09:08.927Z,85.13
2023-02-17T22:11:40.049Z,85.00
2023-02-17T22:14:10.357Z,84.95
2023-02-17T22:16:38.391Z,85.08
2023-02-17T22:19:07.980Z,85.38
2023-02-17T22:21:36.569Z,85.20
2023-02-17T22:24:04.867Z,85.69
2023-02-17T22:26:33.532Z,84.93
2023-02-17T22:29:01.436Z,85.27
2023-02-17T22:31:31.314Z,84.59
2023-02-17T22:34:02.481Z,85.02
2023-02-17T22:36:32.441Z,84.71
2023-02-17T22:39:00.364Z,85.03
2023-02-17T22:41:28.210Z,85.62
2023-02-17T22:43:56.145Z,85.53
2023-02-17T22:46:24.982Z,84.65
2023-02-17T22:48:53.179Z,84.67
2023-02-17T22:51:23.669Z,84.35
2023-02-17T22:53:51.679Z,84.22
2023-02-17T22:56:20.476Z,83.91
2023-02-17T22:58:50.672Z,83.67
2023-02-17T23:01:20.757Z,83.41
2023-02-17T23:03:53.033Z,83.64
2023-02-17T23:06:35.702Z,83.65
2023-02-17T23:09:04.715Z,83.54
2023-02-17T23:11:52.541Z,84.60
2023-02-17T23:14:24.369Z,83.63
2023-02-17T23:16:52.479Z,83.67
2023-02-17T23:19:21.867Z,84.60
2023-02-17T23:21:52.178Z,84.38
2023-02-17T23:24:20.327Z,85.03
2023-02-17T23:26:48.128Z,85.78
2023-02-17T23:29:16.479Z,84.85
2023-02-17T23:31:44.487Z,84.41
2023-02-17T23:34:13.433Z,85.72
2023-02-17T23:36:43.345Z,85.71
2023-02-17T23:39:10.986Z,85.36
2023-02-17T23:41:39.024Z,84.85
2023-02-17T23:44:08.036Z,85.54
2023-02-17T23:46:36.116Z,84.97
2023-02-17T23:49:03.956Z,84.63
2023-02-17T23:51:31.949Z,84.43
2023-02-17T23:54:00.025Z,84.85
2023-02-17T23:56:30.679Z,85.52
2023-02-17T23:58:58.561Z,84.61
